createdAt,value
2023-04-01T00:02:24.240Z,96609.00
2023-04-01T00:05:27.455Z,96604.66
2023-04-01T00:08:32.233Z,96606.56
2023-04-01T00:11:35.488Z,96603.25
2023-04-01T00:14:38.985Z,96591.44
2023-04-01T00:17:42.184Z,96597.69
2023-04-01T00:20:47.192Z,96587.00
2023-04-01T00:23:52.506Z,96591.34
2023-04-01T00:26:56.612Z,96590.59
2023-04-01T00:29:59.946Z,96594.69
2023-04-01T00:33:03.709Z,96594.28
2023-04-01T00:36:12.228Z,96590.44
2023-04-01T00:39:16.722Z,96586.41
2023-04-01T00:42:20.459Z,96585.53
2023-04-01T00:45:34.163Z,96593.84
2023-04-01T00:48:40.849Z,96601.59
2023-04-01T00:51:47.284Z,96596.44
2023-04-01T00:54:57.861Z,96593.09
2023-04-01T00:58:03.771Z,96603.91
2023-04-01T01:01:08.459Z,96599.59
2023-04-01T01:04:24.087Z,96594.94
2023-04-01T01:07:35.446Z,96598.25
2023-04-01T01:10:41.647Z,96596.06
2023-04-01T01:13:56.383Z,96591.53
2023-04-01T01:17:08.589Z,96592.47
2023-04-01T01:20:35.744Z,96594.00
2023-04-01T01:24:09.798Z,96584.91
2023-04-01T01:27:17.763Z,96596.44
2023-04-01T01:30:36.668Z,96595.25
2023-04-01T01:34:01.256Z,96580.38
2023-04-01T01:37:11.893Z,96582.34
2023-04-01T01:40:17.580Z,96576.34
2023-04-01T01:43:25.872Z,96582.44
2023-04-01T01:46:30.612Z,96568.41
2023-04-01T01:49:35.864Z,96570.78
2023-04-01T01:52:40.444Z,96571.06
2023-04-01T01:55:46.288Z,96564.94
2023-04-01T01:58:53.819Z,96575.13
2023-04-01T02:02:00.002Z,96573.00
2023-04-01T02:05:04.553Z,96572.09
2023-04-01T02:08:13.954Z,96557.72
2023-04-01T02:11:20.087Z,96561.53
2023-04-01T02:14:28.181Z,96563.44
2023-04-01T02:17:32.728Z,96562.34
2023-04-01T02:20:38.338Z,96575.53
2023-04-01T02:23:44.168Z,96565.88
2023-04-01T02:26:49.075Z,96572.59
2023-04-01T02:29:53.020Z,96573.69
2023-04-01T02:32:58.483Z,96577.00
2023-04-01T02:36:02.340Z,96577.84
2023-04-01T02:39:07.666Z,96583.94
2023-04-01T02:42:11.434Z,96580.69
2023-04-01T02:45:15.921Z,96578.50
2023-04-01T02:48:19.261Z,96578.97
2023-04-01T02:51:22.526Z,96587.91
2023-04-01T02:54:27.255Z,96584.75
2023-04-01T02:57:31.188Z,96591.69
2023-04-01T03:00:34.582Z,96593.00
2023-04-01T03:03:37.863Z,96602.84
2023-04-01T03:06:41.216Z,96591.88
2023-04-01T03:09:45.756Z,96602.94
2023-04-01T03:12:48.899Z,96598.22
2023-04-01T03:15:52.150Z,96600.75
2023-04-01T03:18:59.834Z,96604.16
2023-04-01T03:22:03.150Z,96603.50
2023-04-01T03:25:09.483Z,96607.56
2023-04-01T03:28:13.345Z,96607.72
2023-04-01T03:35:08.247Z,96595.84
2023-04-01T03:38:12.039Z,96601.28
2023-04-01T03:41:16.483Z,96617.06
2023-04-01T03:44:20.312Z,96619.81
2023-04-01T03:47:26.781Z,96629.88
2023-04-01T03:50:32.249Z,96634.19
2023-04-01T03:53:35.883Z,96625.44
2023-04-01T03:56:41.756Z,96623.69
2023-04-01T03:59:45.098Z,96623.78
2023-04-01T04:02:48.323Z,96627.28
2023-04-01T04:05:58.957Z,96628.09
2023-04-01T04:09:02.445Z,96631.69
2023-04-01T04:12:08.248Z,96633.97
2023-04-01T04:15:12.444Z,96632.63
2023-04-01T04:18:15.782Z,96630.66
2023-04-01T04:21:20.909Z,96628.81
2023-04-01T04:24:24.097Z,96620.38
2023-04-01T04:27:43.201Z,96634.94
2023-04-01T04:30:48.922Z,96630.59
2023-04-01T04:33:53.019Z,96634.47
2023-04-01T04:36:57.512Z,96637.88
2023-04-01T04:40:05.916Z,96637.22
2023-04-01T04:43:12.180Z,96619.72
2023-04-01T04:46:15.597Z,96638.97
2023-04-01T04:49:19.033Z,96640.16
2023-04-01T04:52:23.728Z,96640.84
2023-04-01T04:55:26.888Z,96642.22
2023-04-01T04:58:50.667Z,96645.72
2023-04-01T05:01:58.688Z,96638.06
2023-04-01T05:05:02.436Z,96639.06
2023-04-01T05:08:08.234Z,96642.03
2023-04-01T05:11:14.882Z,96643.13
2023-04-01T05:14:19.827Z,96640.47
2023-04-01T05:17:31.580Z,96647.19
2023-04-01T05:20:34.793Z,96650.50
2023-04-01T05:23:40.565Z,96646.09
2023-04-01T05:26:43.680Z,96647.56
2023-04-01T05:29:47.185Z,96644.34
2023-04-01T05:33:10.655Z,96643.31
2023-04-01T05:36:15.981Z,96645.59
2023-04-01T05:39:20.830Z,96640.53
2023-04-01T05:42:24.227Z,96634.66
2023-04-01T05:45:27.564Z,96638.88
2023-04-01T05:48:48.947Z,96638.69
2023-04-01T05:51:53.266Z,96643.84
2023-04-01T05:54:57.760Z,96635.03
2023-04-01T05:58:01.007Z,96630.41
2023-04-01T06:01:11.597Z,96638.44
2023-04-01T06:04:19.711Z,96632.44
2023-04-01T06:07:23.196Z,96645.06
2023-04-01T06:10:41.482Z,96634.94
2023-04-01T06:14:01.641Z,96644.69
2023-04-01T06:17:21.811Z,96638.03
2023-04-01T06:20:31.310Z,96638.72
2023-04-01T06:23:48.262Z,96642.22
2023-04-01T06:27:09.575Z,96635.56
2023-04-01T06:30:31.586Z,96629.56
2023-04-01T06:33:53.963Z,96636.72
2023-04-01T06:37:11.095Z,96632.22
2023-04-01T06:40:36.250Z,96637.91
2023-04-01T06:43:52.860Z,96635.16
2023-04-01T06:47:48.515Z,96631.97
2023-04-01T06:51:21.463Z,96637.44
2023-04-01T06:54:51.504Z,96636.44
2023-04-01T06:58:23.124Z,96627.34
2023-04-01T07:01:32.553Z,96618.19
2023-04-01T07:04:40.045Z,96627.59
2023-04-01T07:07:46.708Z,96595.16
2023-04-01T07:10:55.628Z,96620.81
2023-04-01T07:14:37.099Z,96624.00
2023-04-01T07:17:45.001Z,96619.03
2023-04-01T07:20:49.086Z,96604.88
2023-04-01T07:23:54.295Z,96609.63
2023-04-01T07:27:17.835Z,96616.28
2023-04-01T07:30:25.635Z,96615.13
2023-04-01T07:33:39.737Z,96617.31
2023-04-01T07:36:47.549Z,96617.09
2023-04-01T07:39:59.561Z,96608.03
2023-04-01T07:43:28.059Z,96618.47
2023-04-01T07:46:57.805Z,96629.31
2023-04-01T07:50:13.396Z,96618.75
2023-04-01T07:53:28.470Z,96632.13
2023-04-01T07:56:42.775Z,96628.72
2023-04-01T08:00:01.410Z,96633.16
2023-04-01T08:03:31.118Z,96626.13
2023-04-01T08:06:42.000Z,96634.31
2023-04-01T08:09:57.655Z,96632.66
2023-04-01T08:13:29.659Z,96633.25
2023-04-01T08:17:01.477Z,96639.34
2023-04-01T08:20:23.534Z,96641.84
2023-04-01T08:23:32.283Z,96632.22
2023-04-01T08:26:42.168Z,96627.75
2023-04-01T08:29:52.014Z,96627.03
2023-04-01T08:32:58.732Z,96631.97
2023-04-01T08:36:07.828Z,96639.91
2023-04-01T08:39:36.956Z,96636.13
2023-04-01T08:43:03.329Z,96625.16
2023-04-01T08:46:18.827Z,96621.41
2023-04-01T08:49:44.015Z,96624.59
2023-04-01T08:53:05.492Z,96623.47
2023-04-01T08:56:19.989Z,96628.53
2023-04-01T08:59:56.256Z,96634.06
2023-04-01T09:03:43.777Z,96625.88
2023-04-01T09:07:01.598Z,96625.75
2023-04-01T09:10:31.486Z,96631.28
2023-04-01T09:14:07.618Z,96634.47
2023-04-01T09:17:31.996Z,96638.31
2023-04-01T09:20:47.654Z,96635.50
2023-04-01T09:24:24.155Z,96628.03
2023-04-01T09:27:31.919Z,96629.09
2023-04-01T09:35:22.833Z,96627.03
2023-04-01T09:38:31.977Z,96604.13
2023-04-01T09:41:43.098Z,96640.50
2023-04-01T09:45:00.161Z,96632.59
2023-04-01T09:48:14.434Z,96631.97
2023-04-01T09:51:28.048Z,96633.56
2023-04-01T09:54:51.726Z,96640.09
2023-04-01T09:58:18.436Z,96646.72
2023-04-01T10:02:21.164Z,96645.91
2023-04-01T10:05:54.874Z,96656.13
2023-04-01T10:09:25.947Z,96661.63
2023-04-01T10:13:18.557Z,96663.66
2023-04-01T10:16:39.815Z,96664.69
2023-04-01T10:20:18.919Z,96677.47
2023-04-01T10:23:51.095Z,96675.72
2023-04-01T10:27:34.696Z,96681.81
2023-04-01T10:31:09.975Z,96685.31
2023-04-01T10:34:51.611Z,96680.81
2023-04-01T10:38:21.806Z,96680.59
2023-04-01T10:41:48.780Z,96680.72
2023-04-01T10:45:46.256Z,96671.28
2023-04-01T10:49:33.208Z,96678.22
2023-04-01T10:53:21.790Z,96683.88
2023-04-01T10:56:49.356Z,96666.81
2023-04-01T11:00:33.948Z,96687.69
2023-04-01T11:04:36.023Z,96690.06
2023-04-01T11:08:30.273Z,96687.13
2023-04-01T11:12:09.835Z,96689.69
2023-04-01T11:15:48.612Z,96684.84
2023-04-01T11:19:17.195Z,96698.13
2023-04-01T11:22:42.883Z,96695.00
2023-04-01T11:26:07.042Z,96683.97
2023-04-01T11:30:00.133Z,96686.66
2023-04-01T11:33:21.146Z,96688.19
2023-04-01T11:36:39.074Z,96695.03
2023-04-01T11:40:01.599Z,96696.34
2023-04-01T11:43:41.937Z,96673.56
2023-04-01T11:47:10.714Z,96695.09
2023-04-01T11:50:23.860Z,96695.19
2023-04-01T11:53:39.603Z,96679.09
2023-04-01T11:56:57.359Z,96687.41
2023-04-01T12:00:15.018Z,96690.84
2023-04-01T12:03:38.440Z,96690.22
2023-04-01T12:06:50.759Z,96691.81
2023-04-01T12:10:05.596Z,96698.69
2023-04-01T12:13:18.676Z,96701.03
2023-04-01T12:16:32.818Z,96703.56
2023-04-01T12:19:45.809Z,96697.41
2023-04-01T12:23:01.333Z,96704.63
2023-04-01T12:26:32.396Z,96700.97
2023-04-01T12:29:51.459Z,96705.63
2023-04-01T12:33:09.316Z,96700.16
2023-04-01T12:36:22.968Z,96706.53
2023-04-01T12:39:50.361Z,96710.53
2023-04-01T12:43:17.248Z,96705.34
2023-04-01T12:46:28.406Z,96689.94
2023-04-01T12:49:46.932Z,96702.69
2023-04-01T12:53:04.067Z,96697.44
2023-04-01T12:56:16.363Z,96707.81
2023-04-01T12:59:42.535Z,96701.91
2023-04-01T13:03:02.470Z,96696.94
2023-04-01T13:06:31.978Z,96699.28
2023-04-01T13:09:44.687Z,96700.56
2023-04-01T13:13:16.772Z,96700.72
2023-04-01T13:16:25.700Z,96710.97
2023-04-01T13:19:36.787Z,96700.22
2023-04-01T13:22:53.738Z,96707.34
2023-04-01T13:26:14.368Z,96698.34
2023-04-01T13:29:24.766Z,96710.56
2023-04-01T13:32:43.196Z,96703.50
2023-04-01T13:35:58.029Z,96706.56
2023-04-01T13:39:30.298Z,96701.28
2023-04-01T13:42:39.988Z,96702.44
2023-04-01T13:46:06.522Z,96669.06
2023-04-01T13:49:42.383Z,96695.91
2023-04-01T13:53:11.466Z,96693.13
2023-04-01T13:56:32.409Z,96703.06
2023-04-01T13:59:59.076Z,96690.41
2023-04-01T14:03:53.036Z,96704.72
2023-04-01T14:07:10.107Z,96703.88
2023-04-01T14:10:25.266Z,96702.53
2023-04-01T14:13:40.823Z,96699.84
2023-04-01T14:17:23.998Z,96696.81
2023-04-01T14:20:41.390Z,96703.38
2023-04-01T14:24:25.254Z,96706.84
2023-04-01T14:27:47.973Z,96711.09
2023-04-01T14:31:06.889Z,96711.28
2023-04-01T14:34:25.336Z,96714.81
2023-04-01T14:37:39.056Z,96716.13
2023-04-01T14:41:08.409Z,96721.53
2023-04-01T14:44:31.326Z,96726.38
2023-04-01T14:47:48.237Z,96717.91
2023-04-01T14:50:54.245Z,96722.13
2023-04-01T14:54:04.769Z,96726.38
2023-04-01T14:57:14.631Z,96731.66
2023-04-01T15:00:20.538Z,96720.34
2023-04-01T15:03:31.451Z,96729.75
2023-04-01T15:07:03.203Z,96735.06
2023-04-01T15:10:20.667Z,96727.03
2023-04-01T15:13:41.985Z,96724.13
2023-04-01T15:16:57.263Z,96728.50
2023-04-01T15:20:17.128Z,96731.91
2023-04-01T15:23:34.829Z,96724.47
2023-04-01T15:27:16.518Z,96731.84
2023-04-01T15:30:34.968Z,96729.53
2023-04-01T15:35:23.568Z,96750.00
2023-04-01T15:38:36.658Z,96748.56
2023-04-01T15:41:51.215Z,96739.31
2023-04-01T15:45:08.957Z,96755.38
2023-04-01T15:48:33.561Z,96746.59
2023-04-01T15:51:57.343Z,96752.94
2023-04-01T15:55:21.940Z,96760.16
2023-04-01T15:58:47.678Z,96755.19
2023-04-01T16:01:59.984Z,96761.38
2023-04-01T16:05:11.570Z,96763.16
2023-04-01T16:08:46.745Z,96766.34
2023-04-01T16:11:59.090Z,96764.19
2023-04-01T16:15:16.253Z,96768.19
2023-04-01T16:18:37.906Z,96772.09
2023-04-01T16:21:47.142Z,96775.81
2023-04-01T16:24:56.851Z,96779.13
2023-04-01T16:28:20.480Z,96790.25
2023-04-01T16:31:34.546Z,96783.41
2023-04-01T16:34:43.421Z,96785.34
2023-04-01T16:37:51.568Z,96791.84
2023-04-01T16:41:12.835Z,96793.50
2023-04-01T16:44:22.415Z,96791.28
2023-04-01T16:47:32.293Z,96789.63
2023-04-01T16:50:50.828Z,96811.66
2023-04-01T16:54:07.678Z,96811.50
2023-04-01T16:57:21.917Z,96820.84
2023-04-01T17:00:29.096Z,96812.53
2023-04-01T17:03:35.689Z,96826.94
2023-04-01T17:06:46.967Z,96811.72
2023-04-01T17:10:07.971Z,96810.06
2023-04-01T17:13:42.152Z,96823.59
2023-04-01T17:17:15.526Z,96822.97
2023-04-01T17:20:42.607Z,96827.78
2023-04-01T17:23:52.576Z,96823.69
2023-04-01T17:27:03.846Z,96835.59
2023-04-01T17:30:19.944Z,96818.38
2023-04-01T17:33:51.428Z,96839.94
2023-04-01T17:37:08.591Z,96841.44
2023-04-01T17:40:23.920Z,96850.03
2023-04-01T17:43:39.799Z,96855.47
2023-04-01T17:46:59.610Z,96834.50
2023-04-01T17:50:16.251Z,96866.56
2023-04-01T17:53:30.909Z,96875.22
2023-04-01T17:56:50.608Z,96870.59
2023-04-01T18:00:03.580Z,96875.22
2023-04-01T18:03:26.469Z,96878.91
2023-04-01T18:06:37.794Z,96872.81
2023-04-01T18:09:55.632Z,96870.44
2023-04-01T18:13:20.224Z,96887.69
2023-04-01T18:16:36.236Z,96892.03
2023-04-01T18:19:49.679Z,96891.31
2023-04-01T18:23:00.100Z,96894.06
2023-04-01T18:26:11.593Z,96899.94
2023-04-01T18:29:28.646Z,96898.38
2023-04-01T18:32:37.769Z,96900.34
2023-04-01T18:35:54.500Z,96910.09
2023-04-01T18:39:04.057Z,96913.25
2023-04-01T18:42:16.969Z,96918.69
2023-04-01T18:45:24.784Z,96913.72
2023-04-01T18:48:44.966Z,96922.88
2023-04-01T18:51:54.874Z,96920.53
2023-04-01T18:55:33.626Z,96922.28
2023-04-01T18:58:37.831Z,96932.63
2023-04-01T19:01:47.647Z,96935.50
2023-04-01T19:04:58.271Z,96936.31
2023-04-01T19:08:22.210Z,96945.44
2023-04-01T19:11:38.333Z,96944.41
2023-04-01T19:14:55.660Z,96947.69
2023-04-01T19:18:27.782Z,96948.50
2023-04-01T19:21:37.750Z,96951.97
2023-04-01T19:25:08.331Z,96960.75
2023-04-01T19:28:28.660Z,96958.16
2023-04-01T19:31:48.781Z,96964.75
2023-04-01T19:35:02.279Z,96944.31
2023-04-01T19:38:11.549Z,96931.25
2023-04-01T19:41:29.735Z,96965.47
2023-04-01T19:44:49.267Z,96960.97
2023-04-01T19:48:02.608Z,96959.88
2023-04-01T19:51:11.401Z,96952.66
2023-04-01T19:54:25.881Z,96958.22
2023-04-01T19:57:40.514Z,96965.19
2023-04-01T20:00:48.092Z,96963.19
2023-04-01T20:03:56.720Z,96957.09
2023-04-01T20:07:09.130Z,96975.38
2023-04-01T20:10:19.001Z,96990.16
2023-04-01T20:13:32.922Z,96991.31
2023-04-01T20:16:51.042Z,96995.84
2023-04-01T20:20:00.649Z,96996.16
2023-04-01T20:23:28.499Z,97000.00
2023-04-01T20:26:34.490Z,96994.22
2023-04-01T20:29:48.139Z,96993.19
2023-04-01T20:33:10.879Z,96988.72
2023-04-01T20:36:18.417Z,96994.97
2023-04-01T20:39:45.975Z,96989.94
2023-04-01T20:43:04.012Z,96996.38
2023-04-01T20:46:20.909Z,96984.34
2023-04-01T20:49:41.414Z,96997.81
2023-04-01T20:52:52.325Z,97010.53
2023-04-01T20:56:22.904Z,97017.41
2023-04-01T20:59:46.707Z,97026.03
2023-04-01T21:03:02.163Z,97036.31
2023-04-01T21:06:33.964Z,97039.22
2023-04-01T21:09:53.973Z,97037.97
2023-04-01T21:13:12.432Z,97042.13
2023-04-01T21:16:26.008Z,97046.91
2023-04-01T21:19:49.166Z,97051.81
2023-04-01T21:23:34.307Z,97048.66
2023-04-01T21:26:49.311Z,97055.63
2023-04-01T21:30:02.200Z,97056.66
2023-04-01T21:35:16.900Z,97064.13
2023-04-01T21:38:35.260Z,97065.31
2023-04-01T21:41:59.129Z,97069.69
2023-04-01T21:45:14.330Z,97048.06
2023-04-01T21:48:49.825Z,97075.97
2023-04-01T21:52:31.576Z,97080.44
2023-04-01T21:56:01.753Z,97074.53
2023-04-01T21:59:46.818Z,97084.03
2023-04-01T22:03:26.602Z,97081.78
2023-04-01T22:06:37.335Z,97084.88
2023-04-01T22:09:45.612Z,97083.94
2023-04-01T22:12:56.746Z,97089.28
2023-04-01T22:16:10.399Z,97085.06
2023-04-01T22:19:22.927Z,97088.94
2023-04-01T22:22:33.024Z,97098.06
2023-04-01T22:25:43.929Z,97094.94
2023-04-01T22:28:57.301Z,97098.63
2023-04-01T22:32:08.361Z,97096.94
2023-04-01T22:35:19.839Z,97110.03
2023-04-01T22:38:36.549Z,97103.69
2023-04-01T22:41:55.519Z,97041.31
2023-04-01T22:45:12.857Z,97109.03
2023-04-01T22:48:22.752Z,97115.78
2023-04-01T22:51:33.094Z,97119.09
2023-04-01T22:54:41.858Z,97117.63
2023-04-01T22:57:53.411Z,97112.78
2023-04-01T23:01:01.761Z,97119.44
2023-04-01T23:04:07.271Z,97130.84
2023-04-01T23:07:28.380Z,97134.34
2023-04-01T23:10:43.376Z,97130.19
2023-04-01T23:13:53.719Z,97137.84
2023-04-01T23:17:06.845Z,97138.84
2023-04-01T23:20:22.612Z,97141.59
2023-04-01T23:23:35.747Z,97143.41
2023-04-01T23:26:45.946Z,97142.50
2023-04-01T23:29:49.097Z,97153.00
2023-04-01T23:32:53.757Z,97152.34
2023-04-01T23:36:05.916Z,97160.06
2023-04-01T23:39:22.761Z,97167.13
2023-04-01T23:42:29.630Z,97165.56
2023-04-01T23:45:33.123Z,97168.22
2023-04-01T23:48:41.171Z,97170.78
2023-04-01T23:51:54.133Z,97176.13
2023-04-01T23:55:00.745Z,97176.44
2023-04-01T23:58:16.216Z,97177.72
